Flight Track Log - Related Links

Times and Time Zones

All times are in EDT time to prevent confusion due to time zone crossing. See the UAL4536 flight status page for this flight to view local times or setup timezone preferences in your user account.

Time Position Orientation Groundspeed Altitude Reporting Facility
EDT Latitude Longitude Course Direction KTS MPH feet Rate Location/Type
Thu 11:22:49 PM 40.7333 -74.1167 258° West 193 222 2,800  Level New York TRACON
Thu 11:23:49 PM 40.7833 -74.1000 14° North 263 303 4,800 2,750 Climbing New York TRACON
Thu 11:24:49 PM 40.8000 -74.2000 282° West 272 313 8,300 2,562 Climbing New York TRACON
Thu 11:25:00 PM 40.6834 -74.6654 270° West  Level FlightAware Approximate
Thu 11:26:00 PM 40.6834 -74.7900 270° West  Level FlightAware Approximate
Thu 11:26:54 PM 40.7700 -74.4181 260° West 313 360 12,700  Level New York Center
Thu 11:27:00 PM 40.6833 -74.9147 270° West  Level FlightAware Approximate
Thu 11:27:55 PM 40.7578 -74.5353 262° West 351 404 14,700  Level New York Center
Thu 11:28:00 PM 40.6715 -75.0377 258° West  Level FlightAware Approximate
Thu 11:28:55 PM 40.7389 -74.6711 260° West 364 419 17,200  Level New York Center
Thu 11:29:55 PM 40.7225 -74.7878 260° West 364 419 18,900 1,513 Climbing New York Center
Thu 11:30:54 PM 40.7028 -74.9344 260° West 364 419 20,200 1,200 Climbing New York Center
Thu 11:31:55 PM 40.6833 -75.0731 260° West 381 438 21,300 1,131 Climbing New York Center
Thu 11:32:56 PM 40.6508 -75.2186 254° West 402 463 22,500 1,400 Climbing New York Center
Thu 11:33:55 PM 40.6161 -75.3614 252° West 414 476 24,100 1,714 Climbing New York Center
Thu 11:34:55 PM 40.5814 -75.5039 252° West 414 476 25,900 1,850 Climbing New York Center
Thu 11:35:55 PM 40.5489 -75.6381 252° West 404 465 27,800 1,932 Climbing New York Center
Thu 11:36:53 PM 40.5139 -75.7750 251° West 399 459 29,700 1,983 Climbing New York Center
Thu 11:37:53 PM 40.4833 -75.9064 253° West 386 444 31,700 2,033 Climbing New York Center
Thu 11:38:54 PM 40.4461 -76.0372 250° West 386 444 33,800 1,805 Climbing New York Center
Thu 11:39:56 PM 40.4156 -76.1603 252° West 375 432 35,400 1,100 Climbing New York Center
Thu 11:40:54 PM 40.3856 -76.2697 250° West 370 426 36,000 303 Climbing New York Center
Thu 11:41:55 PM 40.3522 -76.4033 252° West 376 433 36,000  Level New York Center
Thu 11:42:53 PM 40.3161 -76.5475 252° West 400 460 36,000  Level New York Center
Thu 11:43:55 PM 40.2772 -76.6967 251° West 418 481 36,000  Level New York Center
Thu 11:44:55 PM 40.2383 -76.8511 252° West 435 501 36,000  Level New York Center
Thu 11:45:55 PM 40.1969 -77.0050 251° West 447 514 36,000  Level New York Center
Thu 11:46:54 PM 40.1572 -77.1592 251° West 452 520 36,000  Level New York Center
Thu 11:47:56 PM 40.1147 -77.3261 252° West 452 520 36,000  Level New York Center
Thu 11:49:44 PM 40.0467 -77.5889 251° West 461 531 36,000  Level Cleveland Center
Thu 11:50:44 PM 40.0067 -77.7397 251° West 456 525 36,000  Level Cleveland Center
Thu 11:51:44 PM 39.9667 -77.8931 251° West 451 519 36,000  Level Cleveland Center
Thu 11:52:44 PM 39.9242 -78.0439 250° West 451 519 36,000  Level Cleveland Center
Thu 11:53:44 PM 39.8836 -78.1969 251° West 451 519 36,000  Level Cleveland Center
Thu 11:54:44 PM 39.8350 -78.3636 249° West 451 519 36,000  Level Cleveland Center
Thu 11:55:44 PM 39.7919 -78.5161 250° West 451 519 36,000  Level Cleveland Center
Thu 11:56:44 PM 39.7569 -78.6550 252° West 451 519 36,000  Level Cleveland Center
Thu 11:57:44 PM 39.7156 -78.8072 251° West 451 519 36,000  Level Cleveland Center
Thu 11:58:44 PM 39.6719 -78.9594 250° West 451 519 36,000  Level Cleveland Center
Thu 11:59:44 PM 39.6264 -79.1250 250° West 451 519 36,000  Level Cleveland Center
Fri 12:00:44 AM 39.5822 -79.2742 249° West 451 519 36,000  Level Cleveland Center
Fri 12:01:44 AM 39.5381 -79.4283 250° West 451 519 36,000  Level Cleveland Center
Fri 12:02:44 AM 39.4978 -79.5769 251° West 451 519 36,000  Level Cleveland Center
Fri 12:03:44 AM 39.4553 -79.7281 250° West 451 519 36,000  Level Cleveland Center
Fri 12:04:44 AM 39.4106 -79.8792 249° West 451 519 36,000  Level Cleveland Center
Fri 12:05:44 AM 39.3633 -80.0328 248° West 451 519 36,000  Level Cleveland Center
Fri 12:06:44 AM 39.3203 -80.1806 249° West 451 519 36,000  Level Cleveland Center
Fri 12:08:09 AM 39.2614 -80.3717 248° West 451 519 36,000  Level Indianapolis Center
Fri 12:09:10 AM 39.2078 -80.5489 249° West 445 512 36,000  Level Indianapolis Center
Fri 12:10:11 AM 39.1639 -80.6950 249° West 438 504 36,000  Level Indianapolis Center
Fri 12:11:12 AM 39.1367 -80.8419 257° West 427 491 36,000  Level Indianapolis Center
Fri 12:12:12 AM 39.1358 -80.9894 270° West 415 478 36,000  Level Indianapolis Center
Fri 12:13:13 AM 39.1344 -81.1381 269° West 415 478 36,000  Level Indianapolis Center
Fri 12:14:14 AM 39.1336 -81.2875 270° West 419 482 36,000  Level Indianapolis Center
Fri 12:15:34 AM 39.1311 -81.4964 269° West 420 483 36,000  Level Indianapolis Center
Fri 12:16:34 AM 39.1289 -81.6494 269° West 427 491 36,000  Level Indianapolis Center
Fri 12:17:35 AM 39.1272 -81.8044 269° West 435 501 36,000  Level Indianapolis Center
Fri 12:18:36 AM 39.1242 -81.9608 269° West 438 504 36,000  Level Indianapolis Center
Fri 12:19:36 AM 39.1219 -82.1153 269° West 435 501 36,000 -893 Level Indianapolis Center
Fri 12:20:37 AM 39.1189 -82.2719 269° West 439 505 34,200 -1,884 Descending Indianapolis Center
Fri 12:21:37 AM 39.1158 -82.4189 269° West 418 481 32,200 -2,033 Descending Indianapolis Center
Fri 12:22:38 AM 39.1125 -82.5631 268° West 405 466 30,100 -2,016 Descending Indianapolis Center
Fri 12:23:39 AM 39.1100 -82.7131 269° West 417 480 28,100 -1,934 Descending Indianapolis Center
Fri 12:24:39 AM 39.1053 -82.8753 268° West 448 516 26,200 -1,983 Descending Indianapolis Center
Fri 12:25:40 AM 39.1008 -83.0367 268° West 453 521 24,100 -2,579 Descending Indianapolis Center
Fri 12:26:40 AM 39.0969 -83.1853 268° West 415 478 21,000 -3,025 Descending Indianapolis Center
Fri 12:27:41 AM 39.0931 -83.3300 268° West 402 463 18,000 -2,380 Descending Indianapolis Center
Fri 12:28:41 AM 39.0886 -83.4731 268° West 397 457 16,200 -1,835 Descending Indianapolis Center
Fri 12:29:42 AM 39.0844 -83.6083 268° West 379 436 14,300 -1,983 Descending Indianapolis Center
Fri 12:30:42 AM 39.0806 -83.7458 268° West 379 436 12,200 -1,636 Descending Indianapolis Center
Fri 12:31:43 AM 39.0767 -83.8750 268° West 364 419 11,000 -590 Descending Indianapolis Center
Fri 12:32:44 AM 39.0875 -84.0003 276° West 353 406 11,000 -50 Level Indianapolis Center
Fri 12:33:44 AM 39.1003 -84.1244 278° West 349 402 10,900 -545 Descending Indianapolis Center
Fri 12:34:45 AM 39.1108 -84.2261 278° West 291 335 9,900 -1,438 Descending Indianapolis Center
Fri 12:35:45 AM 39.1214 -84.3219 278° West 270 311 8,000 -1,934 Descending Indianapolis Center
Fri 12:36:46 AM 39.1331 -84.4158 279° West 265 305 6,000 -1,488 Descending Indianapolis Center
Fri 12:37:46 AM 39.1431 -84.5089 278° West 262 302 5,000 -992 Descending Indianapolis Center
Fri 12:38:47 AM 39.1522 -84.5950 278° West 258 297 4,000 -1,132 Descending Indianapolis Center
Fri 12:40:25 AM 39.1167 -84.6833 243° Southwest 134 154 2,000 -1,063 Descending Cincinnati TRACON
Fri 12:41:25 AM 39.0833 -84.6833 180° South 133 153 1,200 -800 Descending Cincinnati TRACON
Fri 12:43:00 AM 39.0488 -84.6678 193° South  Level Estimated

Login

Don't have an account? Register now (free) for customized features, flight alerts, and more!